sensor_id;sensor_type;location;lat;lon;timestamp;P1;durP1;ratioP1;P2;durP2;ratioP2
36383;SDS011;22418;51.210;6.976;2023-07-28T00:00:46;5.80;;;1.80;;
36383;SDS011;22418;51.210;6.976;2023-07-28T00:03:16;6.27;;;2.07;;
36383;SDS011;22418;51.210;6.976;2023-07-28T00:05:47;4.43;;;1.70;;
36383;SDS011;22418;51.210;6.976;2023-07-28T00:08:18;4.13;;;1.80;;
36383;SDS011;22418;51.210;6.976;2023-07-28T00:10:48;4.10;;;1.63;;
36383;SDS011;22418;51.210;6.976;2023-07-28T00:13:19;4.50;;;1.80;;
36383;SDS011;22418;51.210;6.976;2023-07-28T00:15:49;6.03;;;2.30;;
36383;SDS011;22418;51.210;6.976;2023-07-28T00:18:20;3.90;;;1.93;;
36383;SDS011;22418;51.210;6.976;2023-07-28T00:20:51;5.75;;;1.77;;
36383;SDS011;22418;51.210;6.976;2023-07-28T00:23:21;7.13;;;1.80;;
36383;SDS011;22418;51.210;6.976;2023-07-28T00:25:52;2.27;;;1.70;;
36383;SDS011;22418;51.210;6.976;2023-07-28T00:28:22;6.30;;;1.60;;
36383;SDS011;22418;51.210;6.976;2023-07-28T00:30:53;2.60;;;1.67;;
36383;SDS011;22418;51.210;6.976;2023-07-28T00:33:23;4.57;;;1.80;;
36383;SDS011;22418;51.210;6.976;2023-07-28T00:35:54;6.83;;;2.07;;
36383;SDS011;22418;51.210;6.976;2023-07-28T00:38:25;3.77;;;2.07;;
36383;SDS011;22418;51.210;6.976;2023-07-28T00:40:55;4.13;;;1.47;;
36383;SDS011;22418;51.210;6.976;2023-07-28T00:43:26;2.70;;;1.50;;
36383;SDS011;22418;51.210;6.976;2023-07-28T00:45:56;4.67;;;1.80;;
36383;SDS011;22418;51.210;6.976;2023-07-28T00:48:27;3.35;;;1.98;;
36383;SDS011;22418;51.210;6.976;2023-07-28T00:50:57;3.63;;;1.77;;
36383;SDS011;22418;51.210;6.976;2023-07-28T00:53:28;4.07;;;1.70;;
36383;SDS011;22418;51.210;6.976;2023-07-28T00:56:00;7.53;;;1.83;;
36383;SDS011;22418;51.210;6.976;2023-07-28T00:58:31;5.32;;;1.80;;
36383;SDS011;22418;51.210;6.976;2023-07-28T01:01:02;6.43;;;1.73;;
36383;SDS011;22418;51.210;6.976;2023-07-28T01:03:33;3.23;;;1.33;;
36383;SDS011;22418;51.210;6.976;2023-07-28T01:11:18;4.53;;;1.67;;
36383;SDS011;22418;51.210;6.976;2023-07-28T01:13:48;2.90;;;1.67;;
36383;SDS011;22418;51.210;6.976;2023-07-28T01:16:19;3.20;;;1.90;;
36383;SDS011;22418;51.210;6.976;2023-07-28T01:21:22;3.33;;;1.70;;
36383;SDS011;22418;51.210;6.976;2023-07-28T01:26:45;5.97;;;1.63;;
36383;SDS011;22418;51.210;6.976;2023-07-28T01:29:17;6.93;;;2.30;;
36383;SDS011;22418;51.210;6.976;2023-07-28T01:31:49;4.50;;;1.65;;
36383;SDS011;22418;51.210;6.976;2023-07-28T01:34:21;3.83;;;1.77;;
36383;SDS011;22418;51.210;6.976;2023-07-28T01:36:52;7.30;;;3.27;;
36383;SDS011;22418;51.210;6.976;2023-07-28T01:39:22;5.97;;;2.67;;
36383;SDS011;22418;51.210;6.976;2023-07-28T01:41:53;6.93;;;2.23;;
36383;SDS011;22418;51.210;6.976;2023-07-28T01:44:23;4.97;;;1.70;;
36383;SDS011;22418;51.210;6.976;2023-07-28T01:46:54;8.00;;;2.77;;
36383;SDS011;22418;51.210;6.976;2023-07-28T01:49:24;3.33;;;1.90;;
36383;SDS011;22418;51.210;6.976;2023-07-28T01:51:55;2.17;;;1.70;;
36383;SDS011;22418;51.210;6.976;2023-07-28T01:54:25;3.97;;;1.83;;
36383;SDS011;22418;51.210;6.976;2023-07-28T01:56:56;8.93;;;2.03;;
36383;SDS011;22418;51.210;6.976;2023-07-28T01:59:26;5.37;;;2.30;;
36383;SDS011;22418;51.210;6.976;2023-07-28T02:01:57;5.63;;;2.13;;
36383;SDS011;22418;51.210;6.976;2023-07-28T02:04:30;3.42;;;2.22;;
36383;SDS011;22418;51.210;6.976;2023-07-28T02:07:00;3.27;;;2.30;;
36383;SDS011;22418;51.210;6.976;2023-07-28T02:09:31;5.07;;;2.50;;
36383;SDS011;22418;51.210;6.976;2023-07-28T02:12:01;5.27;;;2.43;;
36383;SDS011;22418;51.210;6.976;2023-07-28T02:14:32;6.27;;;2.50;;
36383;SDS011;22418;51.210;6.976;2023-07-28T02:17:03;3.00;;;2.43;;
36383;SDS011;22418;51.210;6.976;2023-07-28T02:19:33;5.27;;;2.80;;
36383;SDS011;22418;51.210;6.976;2023-07-28T02:22:04;6.20;;;2.57;;
36383;SDS011;22418;51.210;6.976;2023-07-28T02:24:35;5.60;;;2.60;;
36383;SDS011;22418;51.210;6.976;2023-07-28T02:27:05;5.53;;;2.63;;
36383;SDS011;22418;51.210;6.976;2023-07-28T02:29:36;4.60;;;2.60;;
36383;SDS011;22418;51.210;6.976;2023-07-28T02:32:06;4.57;;;2.60;;
36383;SDS011;22418;51.210;6.976;2023-07-28T02:34:37;3.55;;;2.50;;
36383;SDS011;22418;51.210;6.976;2023-07-28T02:37:08;2.67;;;2.23;;
36383;SDS011;22418;51.210;6.976;2023-07-28T02:39:38;3.87;;;2.47;;
36383;SDS011;22418;51.210;6.976;2023-07-28T02:42:09;5.33;;;2.60;;
36383;SDS011;22418;51.210;6.976;2023-07-28T02:44:39;6.73;;;2.43;;
36383;SDS011;22418;51.210;6.976;2023-07-28T02:47:10;5.70;;;2.90;;
36383;SDS011;22418;51.210;6.976;2023-07-28T02:49:40;3.90;;;2.37;;
36383;SDS011;22418;51.210;6.976;2023-07-28T02:52:12;5.05;;;2.00;;
36383;SDS011;22418;51.210;6.976;2023-07-28T02:54:42;2.67;;;1.93;;
36383;SDS011;22418;51.210;6.976;2023-07-28T02:57:13;2.23;;;2.00;;
36383;SDS011;22418;51.210;6.976;2023-07-28T02:59:43;2.50;;;2.30;;
36383;SDS011;22418;51.210;6.976;2023-07-28T03:02:14;7.60;;;2.10;;
36383;SDS011;22418;51.210;6.976;2023-07-28T03:04:45;3.87;;;1.70;;
36383;SDS011;22418;51.210;6.976;2023-07-28T03:07:15;2.53;;;1.93;;
36383;SDS011;22418;51.210;6.976;2023-07-28T03:09:46;2.90;;;2.20;;
36383;SDS011;22418;51.210;6.976;2023-07-28T03:12:17;5.87;;;2.50;;
36383;SDS011;22418;51.210;6.976;2023-07-28T03:14:47;4.40;;;2.40;;
36383;SDS011;22418;51.210;6.976;2023-07-28T03:17:18;4.67;;;2.30;;
36383;SDS011;22418;51.210;6.976;2023-07-28T03:19:48;4.63;;;2.57;;
36383;SDS011;22418;51.210;6.976;2023-07-28T03:22:19;2.20;;;2.00;;
36383;SDS011;22418;51.210;6.976;2023-07-28T03:24:49;2.83;;;2.47;;
36383;SDS011;22418;51.210;6.976;2023-07-28T03:27:20;2.83;;;2.43;;
36383;SDS011;22418;51.210;6.976;2023-07-28T03:29:51;3.20;;;2.83;;
36383;SDS011;22418;51.210;6.976;2023-07-28T03:32:21;3.50;;;2.03;;
36383;SDS011;22418;51.210;6.976;2023-07-28T03:34:52;7.13;;;2.57;;
36383;SDS011;22418;51.210;6.976;2023-07-28T03:37:22;7.77;;;2.37;;
36383;SDS011;22418;51.210;6.976;2023-07-28T03:39:53;3.57;;;2.73;;
36383;SDS011;22418;51.210;6.976;2023-07-28T03:42:23;3.40;;;2.70;;
36383;SDS011;22418;51.210;6.976;2023-07-28T03:44:54;3.57;;;2.70;;
36383;SDS011;22418;51.210;6.976;2023-07-28T03:47:25;2.90;;;2.60;;
36383;SDS011;22418;51.210;6.976;2023-07-28T03:49:55;4.03;;;2.70;;
36383;SDS011;22418;51.210;6.976;2023-07-28T03:52:26;6.60;;;2.63;;
36383;SDS011;22418;51.210;6.976;2023-07-28T03:54:57;4.37;;;2.90;;
36383;SDS011;22418;51.210;6.976;2023-07-28T03:57:27;2.27;;;2.07;;
36383;SDS011;22418;51.210;6.976;2023-07-28T03:59:58;3.60;;;2.50;;
36383;SDS011;22418;51.210;6.976;2023-07-28T04:02:28;3.10;;;2.80;;
36383;SDS011;22418;51.210;6.976;2023-07-28T04:04:59;2.47;;;2.17;;
36383;SDS011;22418;51.210;6.976;2023-07-28T04:07:29;3.23;;;2.20;;
36383;SDS011;22418;51.210;6.976;2023-07-28T04:10:00;3.30;;;2.40;;
36383;SDS011;22418;51.210;6.976;2023-07-28T04:12:30;3.47;;;2.33;;
36383;SDS011;22418;51.210;6.976;2023-07-28T04:15:01;4.07;;;2.27;;
36383;SDS011;22418;51.210;6.976;2023-07-28T04:17:32;3.77;;;2.20;;
36383;SDS011;22418;51.210;6.976;2023-07-28T04:20:02;2.40;;;2.10;;
36383;SDS011;22418;51.210;6.976;2023-07-28T04:22:33;3.38;;;2.08;;
36383;SDS011;22418;51.210;6.976;2023-07-28T04:25:04;3.47;;;1.90;;
36383;SDS011;22418;51.210;6.976;2023-07-28T04:27:34;3.45;;;2.03;;
36383;SDS011;22418;51.210;6.976;2023-07-28T04:30:05;2.23;;;1.80;;
36383;SDS011;22418;51.210;6.976;2023-07-28T04:32:36;2.72;;;1.80;;
36383;SDS011;22418;51.210;6.976;2023-07-28T04:35:07;3.60;;;1.93;;
36383;SDS011;22418;51.210;6.976;2023-07-28T04:37:37;1.90;;;1.70;;
36383;SDS011;22418;51.210;6.976;2023-07-28T04:40:08;2.17;;;1.60;;
36383;SDS011;22418;51.210;6.976;2023-07-28T04:42:39;2.95;;;1.63;;
36383;SDS011;22418;51.210;6.976;2023-07-28T04:45:09;3.40;;;1.80;;
36383;SDS011;22418;51.210;6.976;2023-07-28T04:47:40;2.90;;;1.40;;
36383;SDS011;22418;51.210;6.976;2023-07-28T04:50:10;1.73;;;1.43;;
36383;SDS011;22418;51.210;6.976;2023-07-28T04:52:41;2.60;;;1.63;;
36383;SDS011;22418;51.210;6.976;2023-07-28T04:55:12;3.03;;;1.77;;
36383;SDS011;22418;51.210;6.976;2023-07-28T04:57:42;4.77;;;2.13;;
36383;SDS011;22418;51.210;6.976;2023-07-28T05:00:13;2.33;;;1.87;;
36383;SDS011;22418;51.210;6.976;2023-07-28T05:02:43;6.10;;;1.98;;
36383;SDS011;22418;51.210;6.976;2023-07-28T05:05:14;3.27;;;2.27;;
36383;SDS011;22418;51.210;6.976;2023-07-28T05:07:45;5.10;;;2.03;;
36383;SDS011;22418;51.210;6.976;2023-07-28T05:10:15;4.13;;;2.17;;
36383;SDS011;22418;51.210;6.976;2023-07-28T05:12:46;3.23;;;1.80;;
36383;SDS011;22418;51.210;6.976;2023-07-28T05:15:17;8.53;;;2.37;;
36383;SDS011;22418;51.210;6.976;2023-07-28T05:17:47;4.45;;;2.13;;
36383;SDS011;22418;51.210;6.976;2023-07-28T05:20:18;5.90;;;2.50;;
36383;SDS011;22418;51.210;6.976;2023-07-28T05:22:51;7.30;;;2.85;;
36383;SDS011;22418;51.210;6.976;2023-07-28T05:25:25;4.50;;;2.40;;
36383;SDS011;22418;51.210;6.976;2023-07-28T05:27:55;5.33;;;2.20;;
36383;SDS011;22418;51.210;6.976;2023-07-28T05:30:26;6.03;;;2.73;;
36383;SDS011;22418;51.210;6.976;2023-07-28T05:32:56;8.33;;;2.83;;
36383;SDS011;22418;51.210;6.976;2023-07-28T05:35:27;6.20;;;3.07;;
36383;SDS011;22418;51.210;6.976;2023-07-28T05:37:57;4.33;;;2.60;;
36383;SDS011;22418;51.210;6.976;2023-07-28T05:40:28;5.40;;;3.03;;
36383;SDS011;22418;51.210;6.976;2023-07-28T05:42:58;5.00;;;2.77;;
36383;SDS011;22418;51.210;6.976;2023-07-28T05:45:29;7.80;;;3.23;;
36383;SDS011;22418;51.210;6.976;2023-07-28T05:47:59;6.07;;;2.77;;
36383;SDS011;22418;51.210;6.976;2023-07-28T05:50:30;4.43;;;3.03;;
36383;SDS011;22418;51.210;6.976;2023-07-28T05:53:00;4.97;;;2.97;;
36383;SDS011;22418;51.210;6.976;2023-07-28T05:55:33;3.38;;;2.90;;
36383;SDS011;22418;51.210;6.976;2023-07-28T05:58:03;5.27;;;3.77;;
36383;SDS011;22418;51.210;6.976;2023-07-28T06:00:34;6.47;;;3.43;;
36383;SDS011;22418;51.210;6.976;2023-07-28T06:03:04;5.47;;;3.40;;
36383;SDS011;22418;51.210;6.976;2023-07-28T06:05:35;6.10;;;3.67;;
36383;SDS011;22418;51.210;6.976;2023-07-28T06:08:06;5.32;;;3.80;;
36383;SDS011;22418;51.210;6.976;2023-07-28T06:10:37;7.17;;;4.13;;
36383;SDS011;22418;51.210;6.976;2023-07-28T06:13:08;5.32;;;3.78;;
36383;SDS011;22418;51.210;6.976;2023-07-28T06:15:39;7.37;;;4.40;;
36383;SDS011;22418;51.210;6.976;2023-07-28T06:18:10;7.28;;;3.60;;
36383;SDS011;22418;51.210;6.976;2023-07-28T06:20:43;5.90;;;3.90;;
36383;SDS011;22418;51.210;6.976;2023-07-28T06:23:14;11.70;;;4.38;;
36383;SDS011;22418;51.210;6.976;2023-07-28T06:25:44;8.07;;;4.53;;
36383;SDS011;22418;51.210;6.976;2023-07-28T06:28:16;6.72;;;4.32;;
36383;SDS011;22418;51.210;6.976;2023-07-28T06:30:46;5.60;;;3.70;;
36383;SDS011;22418;51.210;6.976;2023-07-28T06:33:17;5.10;;;4.17;;
36383;SDS011;22418;51.210;6.976;2023-07-28T06:35:47;7.03;;;4.30;;
36383;SDS011;22418;51.210;6.976;2023-07-28T06:38:18;5.67;;;4.20;;
36383;SDS011;22418;51.210;6.976;2023-07-28T06:40:49;7.90;;;3.97;;
36383;SDS011;22418;51.210;6.976;2023-07-28T06:43:19;9.07;;;4.30;;
36383;SDS011;22418;51.210;6.976;2023-07-28T06:45:50;6.80;;;4.70;;
36383;SDS011;22418;51.210;6.976;2023-07-28T06:48:21;8.07;;;3.90;;
36383;SDS011;22418;51.210;6.976;2023-07-28T06:50:51;4.30;;;3.13;;
36383;SDS011;22418;51.210;6.976;2023-07-28T06:53:22;8.83;;;4.30;;
36383;SDS011;22418;51.210;6.976;2023-07-28T06:55:53;7.17;;;5.20;;
36383;SDS011;22418;51.210;6.976;2023-07-28T06:58:24;10.85;;;4.50;;
36383;SDS011;22418;51.210;6.976;2023-07-28T07:00:54;11.30;;;5.03;;
36383;SDS011;22418;51.210;6.976;2023-07-28T07:03:25;5.38;;;4.13;;
36383;SDS011;22418;51.210;6.976;2023-07-28T07:05:56;6.27;;;3.60;;
36383;SDS011;22418;51.210;6.976;2023-07-28T07:08:27;4.53;;;3.60;;
36383;SDS011;22418;51.210;6.976;2023-07-28T07:10:57;7.67;;;3.70;;
36383;SDS011;22418;51.210;6.976;2023-07-28T07:13:28;5.53;;;3.90;;
36383;SDS011;22418;51.210;6.976;2023-07-28T07:15:59;8.53;;;3.87;;
36383;SDS011;22418;51.210;6.976;2023-07-28T07:18:29;5.97;;;4.17;;
36383;SDS011;22418;51.210;6.976;2023-07-28T07:21:03;10.10;;;4.00;;
36383;SDS011;22418;51.210;6.976;2023-07-28T07:23:33;6.05;;;4.38;;
36383;SDS011;22418;51.210;6.976;2023-07-28T07:26:04;7.50;;;4.20;;
36383;SDS011;22418;51.210;6.976;2023-07-28T07:28:34;5.20;;;3.40;;
36383;SDS011;22418;51.210;6.976;2023-07-28T07:31:11;5.82;;;3.50;;
36383;SDS011;22418;51.210;6.976;2023-07-28T07:33:45;5.60;;;3.38;;
36383;SDS011;22418;51.210;6.976;2023-07-28T07:36:16;6.43;;;4.17;;
36383;SDS011;22418;51.210;6.976;2023-07-28T07:38:48;5.05;;;3.75;;
36383;SDS011;22418;51.210;6.976;2023-07-28T07:41:21;6.33;;;3.73;;
36383;SDS011;22418;51.210;6.976;2023-07-28T07:43:53;4.72;;;3.58;;
36383;SDS011;22418;51.210;6.976;2023-07-28T07:46:24;4.50;;;3.38;;
36383;SDS011;22418;51.210;6.976;2023-07-28T07:48:54;4.50;;;3.57;;
36383;SDS011;22418;51.210;6.976;2023-07-28T07:51:25;5.47;;;3.57;;
36383;SDS011;22418;51.210;6.976;2023-07-28T07:53:56;4.73;;;3.23;;
36383;SDS011;22418;51.210;6.976;2023-07-28T07:56:27;3.33;;;2.72;;
36383;SDS011;22418;51.210;6.976;2023-07-28T07:58:57;6.32;;;3.63;;
36383;SDS011;22418;51.210;6.976;2023-07-28T08:01:28;6.30;;;3.43;;
36383;SDS011;22418;51.210;6.976;2023-07-28T08:03:58;6.50;;;3.27;;
36383;SDS011;22418;51.210;6.976;2023-07-28T08:06:29;3.83;;;2.90;;
36383;SDS011;22418;51.210;6.976;2023-07-28T08:09:00;4.57;;;3.70;;
36383;SDS011;22418;51.210;6.976;2023-07-28T08:11:31;5.32;;;3.42;;
36383;SDS011;22418;51.210;6.976;2023-07-28T08:14:01;7.47;;;3.90;;
36383;SDS011;22418;51.210;6.976;2023-07-28T08:16:32;4.30;;;2.73;;
36383;SDS011;22418;51.210;6.976;2023-07-28T08:19:02;7.43;;;4.00;;
36383;SDS011;22418;51.210;6.976;2023-07-28T08:21:33;5.35;;;2.97;;
36383;SDS011;22418;51.210;6.976;2023-07-28T08:24:06;7.55;;;3.28;;
36383;SDS011;22418;51.210;6.976;2023-07-28T08:26:37;5.93;;;3.43;;
36383;SDS011;22418;51.210;6.976;2023-07-28T08:29:08;7.03;;;4.07;;
36383;SDS011;22418;51.210;6.976;2023-07-28T08:31:38;5.72;;;3.70;;
36383;SDS011;22418;51.210;6.976;2023-07-28T08:34:09;6.37;;;4.27;;
36383;SDS011;22418;51.210;6.976;2023-07-28T08:36:40;6.67;;;4.10;;
36383;SDS011;22418;51.210;6.976;2023-07-28T08:39:10;9.20;;;5.47;;
36383;SDS011;22418;51.210;6.976;2023-07-28T08:41:41;7.72;;;4.50;;
36383;SDS011;22418;51.210;6.976;2023-07-28T08:44:12;9.67;;;4.77;;
36383;SDS011;22418;51.210;6.976;2023-07-28T08:46:43;6.82;;;4.55;;
36383;SDS011;22418;51.210;6.976;2023-07-28T08:49:14;8.23;;;5.10;;
36383;SDS011;22418;51.210;6.976;2023-07-28T08:51:51;7.97;;;4.83;;
36383;SDS011;22418;51.210;6.976;2023-07-28T08:54:22;8.60;;;4.78;;
36383;SDS011;22418;51.210;6.976;2023-07-28T08:56:53;8.90;;;4.70;;
36383;SDS011;22418;51.210;6.976;2023-07-28T08:59:24;8.43;;;5.23;;
36383;SDS011;22418;51.210;6.976;2023-07-28T09:01:56;5.72;;;4.43;;
36383;SDS011;22418;51.210;6.976;2023-07-28T09:04:30;8.70;;;4.82;;
36383;SDS011;22418;51.210;6.976;2023-07-28T09:07:00;11.17;;;4.57;;
36383;SDS011;22418;51.210;6.976;2023-07-28T09:09:35;5.40;;;3.60;;
36383;SDS011;22418;51.210;6.976;2023-07-28T09:12:07;7.93;;;4.07;;
36383;SDS011;22418;51.210;6.976;2023-07-28T09:14:40;6.57;;;4.10;;
36383;SDS011;22418;51.210;6.976;2023-07-28T09:17:12;9.75;;;3.90;;
36383;SDS011;22418;51.210;6.976;2023-07-28T09:22:21;3.97;;;3.47;;
36383;SDS011;22418;51.210;6.976;2023-07-28T09:24:52;6.05;;;4.00;;
36383;SDS011;22418;51.210;6.976;2023-07-28T09:27:24;8.00;;;3.20;;
36383;SDS011;22418;51.210;6.976;2023-07-28T09:29:56;5.30;;;3.22;;
36383;SDS011;22418;51.210;6.976;2023-07-28T09:32:27;5.30;;;3.63;;
36383;SDS011;22418;51.210;6.976;2023-07-28T09:35:07;7.25;;;3.78;;
36383;SDS011;22418;51.210;6.976;2023-07-28T09:37:43;4.60;;;3.00;;
36383;SDS011;22418;51.210;6.976;2023-07-28T09:40:19;4.72;;;3.42;;
36383;SDS011;22418;51.210;6.976;2023-07-28T09:42:51;5.95;;;3.33;;
36383;SDS011;22418;51.210;6.976;2023-07-28T09:45:24;4.93;;;3.50;;
36383;SDS011;22418;51.210;6.976;2023-07-28T09:47:55;6.68;;;2.85;;
36383;SDS011;22418;51.210;6.976;2023-07-28T09:50:29;5.53;;;3.17;;
36383;SDS011;22418;51.210;6.976;2023-07-28T09:53:02;5.35;;;3.42;;
36383;SDS011;22418;51.210;6.976;2023-07-28T09:58:05;4.07;;;2.83;;
36383;SDS011;22418;51.210;6.976;2023-07-28T10:00:38;6.28;;;2.70;;
36383;SDS011;22418;51.210;6.976;2023-07-28T10:03:10;5.72;;;2.30;;
36383;SDS011;22418;51.210;6.976;2023-07-28T10:05:41;5.10;;;2.65;;
36383;SDS011;22418;51.210;6.976;2023-07-28T10:08:12;5.07;;;2.17;;
36383;SDS011;22418;51.210;6.976;2023-07-28T10:10:44;3.97;;;1.80;;
36383;SDS011;22418;51.210;6.976;2023-07-28T10:13:19;5.85;;;1.90;;
36383;SDS011;22418;51.210;6.976;2023-07-28T10:15:52;2.88;;;2.10;;
36383;SDS011;22418;51.210;6.976;2023-07-28T10:18:23;4.07;;;2.13;;
36383;SDS011;22418;51.210;6.976;2023-07-28T10:20:56;4.75;;;1.70;;
36383;SDS011;22418;51.210;6.976;2023-07-28T10:23:35;4.40;;;1.92;;
36383;SDS011;22418;51.210;6.976;2023-07-28T10:26:08;4.07;;;1.90;;
36383;SDS011;22418;51.210;6.976;2023-07-28T10:28:39;2.75;;;1.75;;
36383;SDS011;22418;51.210;6.976;2023-07-28T10:31:13;2.50;;;1.98;;
36383;SDS011;22418;51.210;6.976;2023-07-28T10:33:46;3.08;;;2.03;;
36383;SDS011;22418;51.210;6.976;2023-07-28T10:41:37;3.42;;;1.70;;
36383;SDS011;22418;51.210;6.976;2023-07-28T10:44:08;2.92;;;1.73;;
36383;SDS011;22418;51.210;6.976;2023-07-28T10:46:39;3.33;;;1.80;;
36383;SDS011;22418;51.210;6.976;2023-07-28T10:49:10;5.15;;;1.85;;
36383;SDS011;22418;51.210;6.976;2023-07-28T10:51:41;5.37;;;2.17;;
36383;SDS011;22418;51.210;6.976;2023-07-28T10:54:11;3.60;;;2.50;;
36383;SDS011;22418;51.210;6.976;2023-07-28T10:56:46;4.95;;;2.20;;
36383;SDS011;22418;51.210;6.976;2023-07-28T10:59:18;3.63;;;2.17;;
36383;SDS011;22418;51.210;6.976;2023-07-28T11:01:48;4.70;;;2.60;;
36383;SDS011;22418;51.210;6.976;2023-07-28T11:04:19;7.53;;;2.63;;
36383;SDS011;22418;51.210;6.976;2023-07-28T11:06:50;6.35;;;2.80;;
36383;SDS011;22418;51.210;6.976;2023-07-28T11:09:22;4.30;;;2.60;;
36383;SDS011;22418;51.210;6.976;2023-07-28T11:11:56;6.90;;;2.33;;
36383;SDS011;22418;51.210;6.976;2023-07-28T11:14:26;5.00;;;3.20;;
36383;SDS011;22418;51.210;6.976;2023-07-28T11:16:58;4.03;;;2.58;;
36383;SDS011;22418;51.210;6.976;2023-07-28T11:19:29;5.57;;;2.53;;
36383;SDS011;22418;51.210;6.976;2023-07-28T11:21:59;2.30;;;2.10;;
36383;SDS011;22418;51.210;6.976;2023-07-28T11:24:30;5.63;;;2.77;;
36383;SDS011;22418;51.210;6.976;2023-07-28T11:27:00;2.93;;;2.17;;
36383;SDS011;22418;51.210;6.976;2023-07-28T11:32:03;10.13;;;2.77;;
36383;SDS011;22418;51.210;6.976;2023-07-28T11:34:35;3.03;;;2.30;;
36383;SDS011;22418;51.210;6.976;2023-07-28T11:37:06;1.83;;;1.67;;
36383;SDS011;22418;51.210;6.976;2023-07-28T11:39:39;2.35;;;1.50;;
36383;SDS011;22418;51.210;6.976;2023-07-28T11:44:41;3.47;;;1.73;;
36383;SDS011;22418;51.210;6.976;2023-07-28T11:47:16;1.40;;;1.30;;
36383;SDS011;22418;51.210;6.976;2023-07-28T11:49:48;11.13;;;1.83;;
36383;SDS011;22418;51.210;6.976;2023-07-28T11:52:20;1.95;;;1.50;;
36383;SDS011;22418;51.210;6.976;2023-07-28T11:54:51;3.77;;;1.50;;
36383;SDS011;22418;51.210;6.976;2023-07-28T11:57:23;3.97;;;1.60;;
36383;SDS011;22418;51.210;6.976;2023-07-28T11:59:55;4.47;;;1.45;;
36383;SDS011;22418;51.210;6.976;2023-07-28T12:02:26;3.90;;;1.20;;
36383;SDS011;22418;51.210;6.976;2023-07-28T12:04:57;1.40;;;1.30;;
36383;SDS011;22418;51.210;6.976;2023-07-28T12:07:29;1.50;;;1.23;;
36383;SDS011;22418;51.210;6.976;2023-07-28T12:10:04;2.75;;;1.30;;
36383;SDS011;22418;51.210;6.976;2023-07-28T12:12:39;1.48;;;1.38;;
36383;SDS011;22418;51.210;6.976;2023-07-28T12:15:21;1.77;;;1.30;;
36383;SDS011;22418;51.210;6.976;2023-07-28T12:18:10;2.40;;;1.10;;
36383;SDS011;22418;51.210;6.976;2023-07-28T12:20:45;2.30;;;1.10;;
36383;SDS011;22418;51.210;6.976;2023-07-28T12:23:18;1.83;;;1.20;;
36383;SDS011;22418;51.210;6.976;2023-07-28T12:25:50;1.85;;;1.00;;
36383;SDS011;22418;51.210;6.976;2023-07-28T12:28:21;1.77;;;1.27;;
36383;SDS011;22418;51.210;6.976;2023-07-28T12:30:51;5.20;;;1.23;;
36383;SDS011;22418;51.210;6.976;2023-07-28T12:33:22;2.60;;;1.10;;
36383;SDS011;22418;51.210;6.976;2023-07-28T12:35:55;2.90;;;1.10;;
36383;SDS011;22418;51.210;6.976;2023-07-28T12:38:26;4.82;;;1.20;;
36383;SDS011;22418;51.210;6.976;2023-07-28T12:40:56;2.08;;;1.15;;
36383;SDS011;22418;51.210;6.976;2023-07-28T12:43:27;2.43;;;1.10;;
36383;SDS011;22418;51.210;6.976;2023-07-28T12:45:59;1.65;;;1.10;;
36383;SDS011;22418;51.210;6.976;2023-07-28T12:48:29;1.30;;;1.20;;
36383;SDS011;22418;51.210;6.976;2023-07-28T12:51:00;1.73;;;1.30;;
36383;SDS011;22418;51.210;6.976;2023-07-28T12:53:30;3.90;;;1.73;;
36383;SDS011;22418;51.210;6.976;2023-07-28T12:56:01;3.30;;;1.67;;
36383;SDS011;22418;51.210;6.976;2023-07-28T12:58:31;2.07;;;1.30;;
36383;SDS011;22418;51.210;6.976;2023-07-28T13:01:03;1.55;;;1.20;;
36383;SDS011;22418;51.210;6.976;2023-07-28T13:03:34;1.40;;;0.85;;
36383;SDS011;22418;51.210;6.976;2023-07-28T13:06:05;1.70;;;0.90;;
36383;SDS011;22418;51.210;6.976;2023-07-28T13:08:35;2.23;;;0.73;;
36383;SDS011;22418;51.210;6.976;2023-07-28T13:11:06;1.80;;;0.70;;
36383;SDS011;22418;51.210;6.976;2023-07-28T13:13:36;3.60;;;1.43;;
36383;SDS011;22418;51.210;6.976;2023-07-28T13:16:07;1.67;;;0.70;;
36383;SDS011;22418;51.210;6.976;2023-07-28T13:18:37;1.43;;;0.80;;
36383;SDS011;22418;51.210;6.976;2023-07-28T13:21:09;3.67;;;0.70;;
36383;SDS011;22418;51.210;6.976;2023-07-28T13:23:42;2.30;;;1.00;;
36383;SDS011;22418;51.210;6.976;2023-07-28T13:26:13;3.60;;;0.87;;
36383;SDS011;22418;51.210;6.976;2023-07-28T13:28:44;1.98;;;1.00;;
36383;SDS011;22418;51.210;6.976;2023-07-28T13:31:17;5.25;;;1.25;;
36383;SDS011;22418;51.210;6.976;2023-07-28T13:33:48;3.38;;;1.08;;
36383;SDS011;22418;51.210;6.976;2023-07-28T13:36:18;6.27;;;2.67;;
36383;SDS011;22418;51.210;6.976;2023-07-28T13:38:49;2.20;;;0.93;;
36383;SDS011;22418;51.210;6.976;2023-07-28T13:41:19;1.30;;;0.80;;
36383;SDS011;22418;51.210;6.976;2023-07-28T13:43:50;3.10;;;0.93;;
36383;SDS011;22418;51.210;6.976;2023-07-28T13:46:21;5.10;;;1.75;;
36383;SDS011;22418;51.210;6.976;2023-07-28T13:48:51;3.03;;;1.10;;
36383;SDS011;22418;51.210;6.976;2023-07-28T13:51:22;2.23;;;1.00;;
36383;SDS011;22418;51.210;6.976;2023-07-28T13:53:53;4.25;;;1.23;;
36383;SDS011;22418;51.210;6.976;2023-07-28T13:56:23;1.60;;;0.93;;
36383;SDS011;22418;51.210;6.976;2023-07-28T13:58:54;1.17;;;0.82;;
36383;SDS011;22418;51.210;6.976;2023-07-28T14:01:24;1.43;;;0.80;;
36383;SDS011;22418;51.210;6.976;2023-07-28T14:03:55;0.90;;;0.80;;
36383;SDS011;22418;51.210;6.976;2023-07-28T14:06:26;1.17;;;0.70;;
36383;SDS011;22418;51.210;6.976;2023-07-28T14:08:56;2.23;;;0.67;;
36383;SDS011;22418;51.210;6.976;2023-07-28T14:11:27;1.50;;;0.73;;
36383;SDS011;22418;51.210;6.976;2023-07-28T14:13:57;1.17;;;0.70;;
36383;SDS011;22418;51.210;6.976;2023-07-28T14:16:28;2.37;;;1.10;;
36383;SDS011;22418;51.210;6.976;2023-07-28T14:18:58;0.70;;;0.60;;
36383;SDS011;22418;51.210;6.976;2023-07-28T14:21:29;2.07;;;0.83;;
36383;SDS011;22418;51.210;6.976;2023-07-28T14:23:59;1.40;;;0.53;;
36383;SDS011;22418;51.210;6.976;2023-07-28T14:26:30;1.87;;;0.60;;
36383;SDS011;22418;51.210;6.976;2023-07-28T14:29:00;1.63;;;0.70;;
36383;SDS011;22418;51.210;6.976;2023-07-28T14:31:31;3.53;;;0.70;;
36383;SDS011;22418;51.210;6.976;2023-07-28T14:34:02;0.98;;;0.80;;
36383;SDS011;22418;51.210;6.976;2023-07-28T14:36:32;1.57;;;0.70;;
36383;SDS011;22418;51.210;6.976;2023-07-28T14:39:05;0.82;;;0.60;;
36383;SDS011;22418;51.210;6.976;2023-07-28T14:41:36;2.45;;;0.77;;
36383;SDS011;22418;51.210;6.976;2023-07-28T14:44:07;4.93;;;1.67;;
36383;SDS011;22418;51.210;6.976;2023-07-28T14:46:37;1.20;;;0.90;;
36383;SDS011;22418;51.210;6.976;2023-07-28T14:49:08;4.50;;;1.30;;
36383;SDS011;22418;51.210;6.976;2023-07-28T14:51:38;1.97;;;1.00;;
36383;SDS011;22418;51.210;6.976;2023-07-28T14:54:09;1.07;;;0.87;;
36383;SDS011;22418;51.210;6.976;2023-07-28T14:56:39;3.43;;;1.57;;
36383;SDS011;22418;51.210;6.976;2023-07-28T14:59:10;5.77;;;1.50;;
36383;SDS011;22418;51.210;6.976;2023-07-28T15:01:40;1.70;;;1.20;;
36383;SDS011;22418;51.210;6.976;2023-07-28T15:04:11;1.50;;;1.30;;
36383;SDS011;22418;51.210;6.976;2023-07-28T15:06:43;2.03;;;1.42;;
36383;SDS011;22418;51.210;6.976;2023-07-28T15:09:14;3.20;;;1.20;;
36383;SDS011;22418;51.210;6.976;2023-07-28T15:11:48;3.47;;;1.20;;
36383;SDS011;22418;51.210;6.976;2023-07-28T15:14:19;0.97;;;0.90;;
36383;SDS011;22418;51.210;6.976;2023-07-28T15:16:49;3.50;;;1.17;;
36383;SDS011;22418;51.210;6.976;2023-07-28T15:19:20;2.23;;;1.07;;
36383;SDS011;22418;51.210;6.976;2023-07-28T15:21:50;1.67;;;1.10;;
36383;SDS011;22418;51.210;6.976;2023-07-28T15:24:21;2.17;;;1.20;;
36383;SDS011;22418;51.210;6.976;2023-07-28T15:26:52;1.63;;;1.08;;
36383;SDS011;22418;51.210;6.976;2023-07-28T15:29:22;1.60;;;0.90;;
36383;SDS011;22418;51.210;6.976;2023-07-28T15:31:53;3.37;;;1.20;;
36383;SDS011;22418;51.210;6.976;2023-07-28T15:34:24;4.25;;;1.08;;
36383;SDS011;22418;51.210;6.976;2023-07-28T15:36:55;1.83;;;1.33;;